createdAt,value
2018-01-23T01:39:12.356Z,42.82
2018-01-23T01:39:12.926Z,42.72
2018-01-23T01:39:13.529Z,42.72
2018-01-23T01:39:14.126Z,42.82
2018-01-23T01:39:14.736Z,42.83
2018-01-23T01:39:15.325Z,42.82
2018-01-23T01:39:15.925Z,42.83
2018-01-23T01:39:16.525Z,42.72
2018-01-23T01:40:11.042Z,42.93
2018-01-23T01:40:11.607Z,42.82
2018-01-23T01:40:12.204Z,42.93
2018-01-23T01:40:12.800Z,43.02
2018-01-23T01:40:13.402Z,42.83
2018-01-23T01:40:14.006Z,42.82
2018-01-23T01:40:14.601Z,43.02
2018-01-23T01:40:15.199Z,42.91
2018-01-23T01:41:08.659Z,42.93
2018-01-23T01:41:09.258Z,42.93
2018-01-23T01:41:09.861Z,42.82
2018-01-23T01:41:10.457Z,42.82
2018-01-23T01:41:11.055Z,43.01
2018-01-23T01:41:11.654Z,42.82
2018-01-23T01:41:12.254Z,42.91
2018-01-23T01:41:12.860Z,42.82
2018-01-23T01:42:07.336Z,42.63
2018-01-23T01:42:07.933Z,42.72
2018-01-23T01:42:08.532Z,42.82
2018-01-23T01:42:09.132Z,42.72
2018-01-23T01:42:09.735Z,42.83
2018-01-23T01:42:10.330Z,42.72
2018-01-23T01:42:10.930Z,42.63
2018-01-23T01:42:11.529Z,42.63
2018-01-23T01:43:06.011Z,42.63
2018-01-23T01:43:06.609Z,42.82
2018-01-23T01:43:07.207Z,42.63
2018-01-23T01:43:07.807Z,42.63
2018-01-23T01:43:08.406Z,42.63
2018-01-23T01:43:09.007Z,42.72
2018-01-23T01:43:09.605Z,42.72
2018-01-23T01:43:10.206Z,42.63
2018-01-23T01:44:04.687Z,42.53
2018-01-23T01:44:05.284Z,42.43
2018-01-23T01:44:05.882Z,42.43
2018-01-23T01:44:06.482Z,42.53
2018-01-23T01:44:07.082Z,42.53
2018-01-23T01:44:07.683Z,42.53
2018-01-23T01:44:08.281Z,42.53
2018-01-23T01:44:08.882Z,42.43
2018-01-23T01:45:02.344Z,42.53
2018-01-23T01:45:02.936Z,42.43
2018-01-23T01:45:03.536Z,42.63
2018-01-23T01:45:04.135Z,42.53
2018-01-23T01:45:04.741Z,42.46
2018-01-23T01:45:05.336Z,42.53
2018-01-23T01:45:05.936Z,42.36
2018-01-23T01:45:06.536Z,42.34
2018-01-23T01:46:00.539Z,42.43
2018-01-23T01:46:01.100Z,42.34
2018-01-23T01:46:01.700Z,42.34
2018-01-23T01:46:02.299Z,42.55
2018-01-23T01:46:02.898Z,42.46
2018-01-23T01:46:03.498Z,42.34
2018-01-23T01:46:04.099Z,42.53
2018-01-23T01:46:57.646Z,42.53
2018-01-23T01:46:58.242Z,42.53
2018-01-23T01:46:58.841Z,42.53
2018-01-23T01:46:59.442Z,42.55
2018-01-23T01:47:00.040Z,42.43
2018-01-23T01:47:00.644Z,42.55
2018-01-23T01:47:01.241Z,42.46
2018-01-23T01:47:01.840Z,42.55
2018-01-23T01:47:55.297Z,42.65
2018-01-23T01:47:55.893Z,42.55
2018-01-23T01:47:56.490Z,42.46
2018-01-23T01:47:57.090Z,42.55
2018-01-23T01:47:57.692Z,42.55
2018-01-23T01:47:58.292Z,42.65
2018-01-23T01:47:58.896Z,42.65
2018-01-23T01:47:59.493Z,42.55
2018-01-23T01:48:53.004Z,42.74
2018-01-23T01:48:53.543Z,42.74
2018-01-23T01:48:54.142Z,42.83
2018-01-23T01:48:54.746Z,42.74
2018-01-23T01:48:55.346Z,42.74
2018-01-23T01:48:55.943Z,42.83
2018-01-23T01:48:56.544Z,42.74
2018-01-23T01:48:57.144Z,42.74
2018-01-23T01:49:51.111Z,42.83
2018-01-23T01:49:51.708Z,43.02
2018-01-23T01:49:52.308Z,42.93
2018-01-23T01:49:52.906Z,43.02
2018-01-23T01:49:53.506Z,42.93
2018-01-23T01:49:54.105Z,42.83
2018-01-23T01:49:54.708Z,42.93
2018-01-23T01:50:48.148Z,43.60
2018-01-23T01:50:48.744Z,43.41
2018-01-23T01:50:49.344Z,43.41
2018-01-23T01:50:49.943Z,43.41
2018-01-23T01:50:50.545Z,43.41
2018-01-23T01:50:51.148Z,43.41
2018-01-23T01:50:51.743Z,43.31
2018-01-23T01:50:52.343Z,43.38
2018-01-23T01:51:46.858Z,43.69
2018-01-23T01:51:47.419Z,43.60
2018-01-23T01:51:48.021Z,43.60
2018-01-23T01:51:48.616Z,43.60
2018-01-23T01:51:49.217Z,43.60
2018-01-23T01:51:49.818Z,43.69
2018-01-23T01:51:50.420Z,43.60
2018-01-23T01:51:51.017Z,43.60
2018-01-23T01:52:45.500Z,44.54
2018-01-23T01:52:46.096Z,44.64
2018-01-23T01:52:46.695Z,44.64
2018-01-23T01:52:47.294Z,44.64
2018-01-23T01:52:47.895Z,44.83
2018-01-23T01:52:48.495Z,44.83
2018-01-23T01:52:49.095Z,44.54
2018-01-23T01:52:49.695Z,44.83
2018-01-23T01:53:43.153Z,44.73
2018-01-23T01:53:43.749Z,44.73
2018-01-23T01:53:44.348Z,44.93
2018-01-23T01:53:44.951Z,45.12
2018-01-23T01:53:45.548Z,45.02
2018-01-23T01:53:46.148Z,45.02
2018-01-23T01:53:46.747Z,45.12
2018-01-23T01:53:47.350Z,45.12
2018-01-23T01:56:15.925Z,45.68
2018-01-23T01:57:29.897Z,47.58
2018-01-23T01:57:30.468Z,47.77
2018-01-23T01:57:31.065Z,47.58
2018-01-23T01:57:31.666Z,47.58
2018-01-23T01:57:32.264Z,47.58
2018-01-23T01:57:32.864Z,47.77
2018-01-23T01:57:33.464Z,47.49
2018-01-23T01:58:27.928Z,47.77
2018-01-23T01:58:28.525Z,47.49
2018-01-23T01:58:29.124Z,47.49
2018-01-23T01:58:29.724Z,47.77
2018-01-23T01:58:30.330Z,47.77
2018-01-23T01:58:30.925Z,47.49
2018-01-23T01:58:31.522Z,47.77
2018-01-23T01:58:32.123Z,47.77
2018-01-23T01:59:27.129Z,48.82
2018-01-23T01:59:27.714Z,48.72
2018-01-23T01:59:28.312Z,48.82
2018-01-23T01:59:28.911Z,48.91
2018-01-23T01:59:29.512Z,49.01
2018-01-23T01:59:30.111Z,48.44
2018-01-23T01:59:30.712Z,48.91
2018-01-23T02:00:24.259Z,49.68
2018-01-23T02:00:24.860Z,49.87
2018-01-23T02:00:25.456Z,49.96
2018-01-23T02:00:26.056Z,49.77
2018-01-23T02:00:26.654Z,49.96
2018-01-23T02:00:27.253Z,49.87
2018-01-23T02:00:27.861Z,49.87
2018-01-23T02:00:28.455Z,49.77
2018-01-23T02:01:21.908Z,50.91
2018-01-23T02:01:22.505Z,50.91
2018-01-23T02:01:23.104Z,50.91
2018-01-23T02:01:23.704Z,50.91
2018-01-23T02:01:24.304Z,51.10
2018-01-23T02:01:24.905Z,50.72
2018-01-23T02:01:25.504Z,51.01
2018-01-23T02:01:26.104Z,50.81
2018-01-23T02:02:19.600Z,51.39
2018-01-23T02:02:20.159Z,51.48
2018-01-23T02:02:20.757Z,51.29
2018-01-23T02:02:21.357Z,51.48
2018-01-23T02:02:21.955Z,51.39
2018-01-23T02:02:22.556Z,51.48
2018-01-23T02:02:23.159Z,51.48
2018-01-23T02:02:23.755Z,51.57
2018-01-23T02:03:17.213Z,52.91
2018-01-23T02:03:17.808Z,52.91
2018-01-23T02:03:18.407Z,52.91
2018-01-23T02:03:19.009Z,53.09
2018-01-23T02:03:19.607Z,52.81
2018-01-23T02:03:20.209Z,52.81
2018-01-23T02:03:20.809Z,52.81
2018-01-23T02:03:21.406Z,52.72
2018-01-23T02:04:16.400Z,54.33
2018-01-23T02:04:16.995Z,54.24
2018-01-23T02:04:17.594Z,54.24
2018-01-23T02:04:18.197Z,54.24
2018-01-23T02:04:18.798Z,54.24
2018-01-23T02:04:19.394Z,54.33
2018-01-23T02:04:19.993Z,54.05
2018-01-23T02:05:14.972Z,54.71
2018-01-23T02:05:15.574Z,54.80
2018-01-23T02:05:16.167Z,54.71
2018-01-23T02:05:16.766Z,54.90
2018-01-23T02:05:17.368Z,54.80
2018-01-23T02:05:17.968Z,54.90
2018-01-23T02:06:12.931Z,54.90
2018-01-23T02:06:13.528Z,54.99
2018-01-23T02:06:14.129Z,55.28
2018-01-23T02:06:14.747Z,55.28
2018-01-23T02:06:15.325Z,55.09
2018-01-23T02:06:15.925Z,55.28
2018-01-23T02:06:16.525Z,55.18
2018-01-23T02:06:17.125Z,55.28
2018-01-23T02:07:10.581Z,55.37
2018-01-23T02:07:11.180Z,55.47
2018-01-23T02:07:11.783Z,55.47
2018-01-23T02:07:12.380Z,55.47
2018-01-23T02:07:12.979Z,55.76
2018-01-23T02:07:13.579Z,55.76
2018-01-23T02:07:14.178Z,55.76
2018-01-23T02:07:14.778Z,55.76
2018-01-23T02:08:08.282Z,56.32
2018-01-23T02:08:08.831Z,56.42
2018-01-23T02:08:09.430Z,56.70
2018-01-23T02:08:10.031Z,56.42
2018-01-23T02:08:10.633Z,56.23
2018-01-23T02:08:11.231Z,56.61
2018-01-23T02:08:11.829Z,56.61
2018-01-23T02:08:12.458Z,56.61
2018-01-23T02:09:06.909Z,57.46
2018-01-23T02:09:07.505Z,56.89
2018-01-23T02:09:08.107Z,57.56
2018-01-23T02:09:08.707Z,57.75
2018-01-23T02:09:09.305Z,57.75
2018-01-23T02:09:09.903Z,57.75
2018-01-23T02:09:10.504Z,57.75
2018-01-23T02:09:11.105Z,57.75
2018-01-23T02:10:05.080Z,58.03
2018-01-23T02:10:05.674Z,57.84
2018-01-23T02:10:06.273Z,57.84
2018-01-23T02:10:06.869Z,57.84
2018-01-23T02:10:07.469Z,57.84
2018-01-23T02:10:08.072Z,57.75
2018-01-23T02:10:08.671Z,57.75
2018-01-23T02:11:03.214Z,58.80
2018-01-23T02:11:03.775Z,59.08
2018-01-23T02:11:04.331Z,58.98
2018-01-23T02:11:04.931Z,58.51
2018-01-23T02:11:05.531Z,58.80
2018-01-23T02:11:06.131Z,58.98
2018-01-23T02:11:06.730Z,58.92
2018-01-23T02:11:07.331Z,58.89
2018-01-23T02:12:00.787Z,58.89
2018-01-23T02:12:01.385Z,59.08
2018-01-23T02:12:01.983Z,59.08
2018-01-23T02:12:02.584Z,59.20
2018-01-23T02:12:03.187Z,59.27
2018-01-23T02:12:03.783Z,59.27
2018-01-23T02:12:04.383Z,59.27
2018-01-23T02:12:04.983Z,59.17
2018-01-23T02:12:59.463Z,60.13
2018-01-23T02:13:00.059Z,60.25
2018-01-23T02:13:00.659Z,60.03
2018-01-23T02:13:01.258Z,60.06
2018-01-23T02:13:01.858Z,60.16
2018-01-23T02:13:02.456Z,60.03
2018-01-23T02:13:03.059Z,60.16
2018-01-23T02:13:03.672Z,59.96
2018-01-23T02:13:57.154Z,60.44
2018-01-23T02:13:57.711Z,60.53
2018-01-23T02:13:58.318Z,60.41
2018-01-23T02:13:58.911Z,60.69
2018-01-23T02:13:59.511Z,60.41
2018-01-23T02:14:00.110Z,60.69
2018-01-23T02:14:00.710Z,60.91
2018-01-23T02:14:01.311Z,60.79
2018-01-23T02:14:56.302Z,61.45
2018-01-23T02:14:56.897Z,61.96
2018-01-23T02:14:57.501Z,61.83
2018-01-23T02:14:58.096Z,61.83
2018-01-23T02:14:58.696Z,61.83
2018-01-23T02:14:59.294Z,61.83
2018-01-23T02:14:59.899Z,61.77
2018-01-23T02:15:54.362Z,62.72
2018-01-23T02:15:54.958Z,62.72
2018-01-23T02:15:55.563Z,62.62
2018-01-23T02:15:56.156Z,62.62
2018-01-23T02:15:56.762Z,62.53
2018-01-23T02:15:57.355Z,62.78
2018-01-23T02:15:57.954Z,62.69
2018-01-23T02:15:58.555Z,62.81
2018-01-23T02:16:52.014Z,63.20
2018-01-23T02:16:52.610Z,63.10
2018-01-23T02:16:53.210Z,62.97
2018-01-23T02:16:53.812Z,62.97
2018-01-23T02:16:54.411Z,63.10
2018-01-23T02:16:55.011Z,63.10
2018-01-23T02:16:55.610Z,62.97
2018-01-23T02:16:56.212Z,63.01
2018-01-23T02:17:50.696Z,63.07
2018-01-23T02:17:51.285Z,63.17
2018-01-23T02:17:51.886Z,62.97
2018-01-23T02:17:52.490Z,62.91
2018-01-23T02:17:53.087Z,63.17
2018-01-23T02:17:53.685Z,63.17
2018-01-23T02:17:54.285Z,63.07
2018-01-23T02:17:54.886Z,63.20
2018-01-23T02:18:49.365Z,63.54
2018-01-23T02:18:49.962Z,63.48
2018-01-23T02:18:50.561Z,63.48
2018-01-23T02:18:51.162Z,63.45
2018-01-23T02:18:51.763Z,63.54
2018-01-23T02:18:52.362Z,63.64
2018-01-23T02:18:52.961Z,63.54
2018-01-23T02:18:53.563Z,63.64
2018-01-23T02:19:48.070Z,64.05
2018-01-23T02:19:48.636Z,63.86
2018-01-23T02:19:49.240Z,64.05
2018-01-23T02:19:49.838Z,63.92
2018-01-23T02:19:50.435Z,64.05
2018-01-23T02:19:51.038Z,64.02
2018-01-23T02:19:51.637Z,63.86
2018-01-23T02:19:52.236Z,64.02
2018-01-23T02:20:45.701Z,64.59
2018-01-23T02:20:46.289Z,64.49
2018-01-23T02:20:46.893Z,64.72
2018-01-23T02:20:47.490Z,64.59
2018-01-23T02:20:48.094Z,64.81
2018-01-23T02:20:48.690Z,64.62
2018-01-23T02:20:49.289Z,64.59
2018-01-23T02:20:49.888Z,65.09
2018-01-23T02:21:43.361Z,64.72
2018-01-23T02:21:43.942Z,64.72
2018-01-23T02:21:44.542Z,64.59
2018-01-23T02:21:45.142Z,64.72
2018-01-23T02:21:45.740Z,64.72
2018-01-23T02:21:46.341Z,64.62
2018-01-23T02:21:46.940Z,64.81
2018-01-23T02:21:47.541Z,64.81
2018-01-23T02:22:42.020Z,64.97
2018-01-23T02:22:42.615Z,65.28
2018-01-23T02:22:43.223Z,65.09
2018-01-23T02:22:43.819Z,65.28
2018-01-23T02:22:44.416Z,65.19
2018-01-23T02:22:45.017Z,65.19
2018-01-23T02:22:45.620Z,65.38
2018-01-23T02:22:46.216Z,65.19
2018-01-23T02:23:39.672Z,66.11
2018-01-23T02:23:40.269Z,66.05
2018-01-23T02:23:40.869Z,66.05
2018-01-23T02:23:41.468Z,66.14
2018-01-23T02:23:42.069Z,66.14
2018-01-23T02:23:42.671Z,65.82
2018-01-23T02:23:43.268Z,66.14
2018-01-23T02:23:43.870Z,66.05
2018-01-23T02:24:37.358Z,65.67
2018-01-23T02:24:37.921Z,65.67
2018-01-23T02:24:38.520Z,65.54
2018-01-23T02:24:39.120Z,65.54
2018-01-23T02:24:39.720Z,65.57
2018-01-23T02:24:40.319Z,65.76
2018-01-23T02:24:40.924Z,65.47
2018-01-23T02:24:41.520Z,65.57
2018-01-23T02:25:36.005Z,67.09
2018-01-23T02:25:36.601Z,66.52
2018-01-23T02:25:37.197Z,67.09
2018-01-23T02:25:37.795Z,67.09
2018-01-23T02:25:38.396Z,67.09
2018-01-23T02:25:38.996Z,66.71
2018-01-23T02:25:39.597Z,66.80
2018-01-23T02:25:40.194Z,66.61
2018-01-23T02:26:34.676Z,66.61
2018-01-23T02:26:35.271Z,66.80
2018-01-23T02:26:35.871Z,66.71
2018-01-23T02:26:36.474Z,66.80
2018-01-23T02:26:37.071Z,66.61
2018-01-23T02:26:37.671Z,66.90
2018-01-23T02:26:38.269Z,66.90
2018-01-23T02:26:38.871Z,66.71
2018-01-23T02:27:33.350Z,66.80
2018-01-23T02:27:33.948Z,66.90
2018-01-23T02:27:34.552Z,67.09
2018-01-23T02:27:35.148Z,66.80
2018-01-23T02:27:35.747Z,67.09
2018-01-23T02:27:36.347Z,67.09
2018-01-23T02:27:36.947Z,67.09
2018-01-23T02:27:37.546Z,67.09
2018-01-23T02:28:31.003Z,66.61
2018-01-23T02:28:31.600Z,66.24
2018-01-23T02:28:32.200Z,66.33
2018-01-23T02:28:32.800Z,66.52
2018-01-23T02:28:33.399Z,66.90
2018-01-23T02:28:34.002Z,67.09
2018-01-23T02:28:34.598Z,66.80
2018-01-23T02:28:35.198Z,66.80
2018-01-23T02:29:28.655Z,67.66
2018-01-23T02:29:29.250Z,67.47
2018-01-23T02:29:29.852Z,67.57
2018-01-23T02:29:30.454Z,67.38
2018-01-23T02:29:31.051Z,67.47
2018-01-23T02:29:31.651Z,67.38
2018-01-23T02:29:32.251Z,67.19
2018-01-23T02:29:32.850Z,67.38
2018-01-23T02:30:27.358Z,67.94
2018-01-23T02:30:27.928Z,68.80
2018-01-23T02:30:28.527Z,67.66
2018-01-23T02:30:29.127Z,68.52
2018-01-23T02:30:29.725Z,68.61
2018-01-23T02:30:30.326Z,68.04
2018-01-23T02:30:30.926Z,68.80
2018-01-23T02:30:31.525Z,68.13
2018-01-23T02:31:24.983Z,68.52
2018-01-23T02:31:25.578Z,68.80
2018-01-23T02:31:26.178Z,68.04
2018-01-23T02:31:26.777Z,68.13
2018-01-23T02:31:27.378Z,68.04
2018-01-23T02:31:27.978Z,68.13
2018-01-23T02:31:28.584Z,68.52
2018-01-23T02:31:29.177Z,68.61
2018-01-23T02:32:22.635Z,68.52
2018-01-23T02:32:23.231Z,68.52
2018-01-23T02:32:23.829Z,68.23
2018-01-23T02:32:24.429Z,68.52
2018-01-23T02:32:25.032Z,68.52
2018-01-23T02:32:25.635Z,68.90
2018-01-23T02:32:26.231Z,68.33
2018-01-23T02:32:26.828Z,68.80
2018-01-23T02:33:21.309Z,67.85
2018-01-23T02:33:21.906Z,67.76
2018-01-23T02:33:22.506Z,68.42
2018-01-23T02:33:23.105Z,68.42
2018-01-23T02:33:23.704Z,68.61
2018-01-23T02:33:24.311Z,68.42
2018-01-23T02:33:24.905Z,68.33
2018-01-23T02:33:25.504Z,68.33
2018-01-23T02:34:19.984Z,68.42
2018-01-23T02:34:20.581Z,68.42
2018-01-23T02:34:21.181Z,68.33
2018-01-23T02:34:21.780Z,67.94
2018-01-23T02:34:22.383Z,67.94
2018-01-23T02:34:22.979Z,67.76
2018-01-23T02:34:23.580Z,68.04
2018-01-23T02:34:24.180Z,68.33
2018-01-23T02:52:52.702Z,64.87
2018-01-23T02:52:53.263Z,64.97
2018-01-23T02:52:53.864Z,64.97
2018-01-23T02:52:54.466Z,65.06
2018-01-23T02:52:55.067Z,64.87
2018-01-23T02:52:55.704Z,64.78
2018-01-23T02:52:56.264Z,64.78
2018-01-23T02:52:56.863Z,64.59
2018-01-23T02:53:50.321Z,64.69
2018-01-23T02:53:50.918Z,64.78
2018-01-23T02:53:51.516Z,64.59
2018-01-23T02:53:52.117Z,64.59
2018-01-23T02:53:52.715Z,64.49
2018-01-23T02:53:53.315Z,64.69
2018-01-23T02:53:53.916Z,64.69
2018-01-23T02:53:54.514Z,64.49
2018-01-23T02:54:48.003Z,63.73
2018-01-23T02:54:48.569Z,63.54
2018-01-23T02:54:49.171Z,63.54
2018-01-23T02:54:49.768Z,63.54
2018-01-23T02:54:50.366Z,63.54
2018-01-23T02:54:50.968Z,63.45
2018-01-23T02:54:51.564Z,63.54
2018-01-23T02:54:52.165Z,63.45
2018-01-23T02:55:46.648Z,63.54
2018-01-23T02:55:47.244Z,63.54
2018-01-23T02:55:47.846Z,63.54
2018-01-23T02:55:48.445Z,63.64
2018-01-23T02:55:49.049Z,63.73
2018-01-23T02:55:49.644Z,63.64
2018-01-23T02:55:50.243Z,63.83
2018-01-23T02:55:50.842Z,63.83
2018-01-23T02:56:44.338Z,62.50
2018-01-23T02:56:44.896Z,62.40
2018-01-23T02:56:45.496Z,62.40
2018-01-23T02:56:46.096Z,62.40
2018-01-23T02:56:46.695Z,62.88
2018-01-23T02:56:47.296Z,62.78
2018-01-23T02:56:47.895Z,62.59
2018-01-23T02:56:48.493Z,62.78
2018-01-23T02:57:41.996Z,61.93
2018-01-23T02:57:42.577Z,61.45
2018-01-23T02:57:43.190Z,61.74
2018-01-23T02:57:43.794Z,61.36
2018-01-23T02:57:44.376Z,61.36
2018-01-23T02:57:44.953Z,61.74
2018-01-23T02:57:45.548Z,61.36
2018-01-23T02:57:46.148Z,61.36
2018-01-23T02:58:40.626Z,61.45
2018-01-23T02:58:41.228Z,61.45
2018-01-23T02:58:41.823Z,61.36
2018-01-23T02:58:42.424Z,61.55
2018-01-23T02:58:43.022Z,61.36
2018-01-23T02:58:43.624Z,61.45
2018-01-23T02:58:44.223Z,61.36
2018-01-23T02:58:44.821Z,61.36
2018-01-23T02:59:38.281Z,61.17
2018-01-23T02:59:38.877Z,61.26
2018-01-23T02:59:39.475Z,61.17
2018-01-23T02:59:40.075Z,61.26
2018-01-23T02:59:40.675Z,61.17
2018-01-23T02:59:41.276Z,61.26
2018-01-23T02:59:41.874Z,61.17
2018-01-23T02:59:42.475Z,61.17
2018-01-23T03:00:35.932Z,60.79
2018-01-23T03:00:36.531Z,60.60
2018-01-23T03:00:37.128Z,60.79
2018-01-23T03:00:37.728Z,60.69
2018-01-23T03:00:38.329Z,60.60
2018-01-23T03:00:38.927Z,60.69
2018-01-23T03:00:39.526Z,60.79
2018-01-23T03:00:40.128Z,60.50
2018-01-23T03:01:33.583Z,60.50
2018-01-23T03:01:34.180Z,60.79
2018-01-23T03:01:34.779Z,60.50
2018-01-23T03:01:35.380Z,60.50
2018-01-23T03:01:35.979Z,60.41
2018-01-23T03:01:36.580Z,60.50
2018-01-23T03:01:37.179Z,60.41
2018-01-23T03:01:37.778Z,60.41
2018-01-23T03:02:31.270Z,59.93
2018-01-23T03:02:31.832Z,59.74
2018-01-23T03:02:32.432Z,59.84
2018-01-23T03:02:33.032Z,59.84
2018-01-23T03:02:33.632Z,59.93
2018-01-23T03:02:34.231Z,59.65
2018-01-23T03:02:34.836Z,59.84
2018-01-23T03:02:35.429Z,59.84
2018-01-23T03:03:28.888Z,59.84
2018-01-23T03:03:29.491Z,59.65
2018-01-23T03:03:30.083Z,59.93
2018-01-23T03:03:30.683Z,59.74
2018-01-23T03:03:31.283Z,59.74
2018-01-23T03:03:31.883Z,59.74
2018-01-23T03:03:32.485Z,59.46
2018-01-23T03:03:33.082Z,59.65
2018-01-23T03:04:26.540Z,59.65
2018-01-23T03:04:27.135Z,59.55
2018-01-23T03:04:27.736Z,59.36
2018-01-23T03:04:28.335Z,59.46
2018-01-23T03:04:28.936Z,59.36
2018-01-23T03:04:29.535Z,59.17
2018-01-23T03:04:30.135Z,59.36
2018-01-23T03:04:30.734Z,59.27
2018-01-23T03:05:24.192Z,59.27
2018-01-23T03:05:24.788Z,59.36
2018-01-23T03:05:25.388Z,59.27
2018-01-23T03:05:25.987Z,59.27
2018-01-23T03:05:26.586Z,59.17
2018-01-23T03:05:27.187Z,59.36
2018-01-23T03:05:27.787Z,59.17
2018-01-23T03:05:28.388Z,59.27
2018-01-23T03:06:22.867Z,58.89
2018-01-23T03:06:23.462Z,59.08
2018-01-23T03:06:24.068Z,58.98
2018-01-23T03:06:24.661Z,58.98
2018-01-23T03:06:25.262Z,58.98
2018-01-23T03:06:25.862Z,59.08
2018-01-23T03:06:26.461Z,59.08
2018-01-23T03:06:27.062Z,58.98
2018-01-23T03:07:20.521Z,59.55
2018-01-23T03:07:21.116Z,59.27
2018-01-23T03:07:21.713Z,59.46
2018-01-23T03:07:22.318Z,59.65
2018-01-23T03:07:22.915Z,59.46
2018-01-23T03:07:23.514Z,59.65
2018-01-23T03:07:24.118Z,59.17
2018-01-23T03:07:24.715Z,59.46
2018-01-23T03:08:19.228Z,59.46
2018-01-23T03:08:19.789Z,59.74
2018-01-23T03:08:20.390Z,59.36
2018-01-23T03:08:20.988Z,59.17
2018-01-23T03:08:21.588Z,59.36
2018-01-23T03:08:22.189Z,59.36
2018-01-23T03:08:22.788Z,59.74
2018-01-23T03:08:23.387Z,59.74
2018-01-23T03:09:16.850Z,59.36
2018-01-23T03:09:17.442Z,59.27
2018-01-23T03:09:18.041Z,59.27
2018-01-23T03:09:18.641Z,59.55
2018-01-23T03:09:19.243Z,59.27
2018-01-23T03:09:19.842Z,59.17
2018-01-23T03:09:20.441Z,59.46
2018-01-23T03:09:21.042Z,59.36
2018-01-23T03:10:15.520Z,59.17
2018-01-23T03:10:16.122Z,59.17
2018-01-23T03:10:16.724Z,59.46
2018-01-23T03:10:17.318Z,59.36
2018-01-23T03:10:17.917Z,59.27
2018-01-23T03:10:18.516Z,59.08
2018-01-23T03:10:19.118Z,59.27
2018-01-23T03:10:19.716Z,59.08
2018-01-23T03:11:14.198Z,60.31
2018-01-23T03:11:14.792Z,60.13
2018-01-23T03:11:15.393Z,60.13
2018-01-23T03:11:15.993Z,60.31
2018-01-23T03:11:16.594Z,60.06
2018-01-23T03:11:17.193Z,60.31
2018-01-23T03:11:17.792Z,60.31
2018-01-23T03:11:18.392Z,60.31
2018-01-23T03:12:11.849Z,60.31
2018-01-23T03:12:12.454Z,60.41
2018-01-23T03:12:13.048Z,60.53
2018-01-23T03:12:13.645Z,60.50
2018-01-23T03:12:14.245Z,60.69
2018-01-23T03:12:14.845Z,60.60
2018-01-23T03:12:15.444Z,60.60
2018-01-23T03:12:16.047Z,60.60
2018-01-23T03:13:09.502Z,60.41
2018-01-23T03:13:10.106Z,60.44
2018-01-23T03:13:10.695Z,60.44
2018-01-23T03:13:11.297Z,60.41
2018-01-23T03:13:11.899Z,60.50
2018-01-23T03:13:12.496Z,60.41
2018-01-23T03:13:13.103Z,60.63
2018-01-23T03:13:13.696Z,60.50
2018-01-23T03:14:07.182Z,61.36
2018-01-23T03:14:07.749Z,61.17
2018-01-23T03:14:08.349Z,61.26
2018-01-23T03:14:08.948Z,61.07
2018-01-23T03:14:09.547Z,61.26
2018-01-23T03:14:10.149Z,61.36
2018-01-23T03:14:10.749Z,60.88
2018-01-23T03:14:11.348Z,61.26
2018-01-23T03:15:04.804Z,61.83
2018-01-23T03:15:05.400Z,61.74
2018-01-23T03:15:06.001Z,61.83
2018-01-23T03:15:06.599Z,61.83
2018-01-23T03:15:07.200Z,61.83
2018-01-23T03:15:07.802Z,61.83
2018-01-23T03:15:08.398Z,61.74
2018-01-23T03:15:08.999Z,61.83
2018-01-23T03:16:02.456Z,61.36
2018-01-23T03:16:03.053Z,61.39
2018-01-23T03:16:03.660Z,61.17
2018-01-23T03:16:04.252Z,61.26
2018-01-23T03:16:04.852Z,61.26
2018-01-23T03:16:05.452Z,61.45
2018-01-23T03:16:06.051Z,61.39
2018-01-23T03:16:06.652Z,61.36
2018-01-23T03:17:01.129Z,61.36
2018-01-23T03:17:01.726Z,61.26
2018-01-23T03:17:02.329Z,61.93
2018-01-23T03:17:02.926Z,61.36
2018-01-23T03:17:03.525Z,61.45
2018-01-23T03:17:04.127Z,61.87
2018-01-23T03:17:04.727Z,61.36
2018-01-23T03:17:05.325Z,61.36
2018-01-23T03:17:59.806Z,61.48
2018-01-23T03:18:00.403Z,61.36
2018-01-23T03:18:01.004Z,61.45
2018-01-23T03:18:01.607Z,61.45
2018-01-23T03:18:02.205Z,61.20
2018-01-23T03:18:02.801Z,61.26
2018-01-23T03:18:03.402Z,61.55
2018-01-23T03:18:04.001Z,61.39
2018-01-23T03:18:58.519Z,61.29
2018-01-23T03:18:59.079Z,61.48
2018-01-23T03:18:59.685Z,61.39
2018-01-23T03:19:00.279Z,61.48
2018-01-23T03:19:00.878Z,61.58
2018-01-23T03:19:01.481Z,61.29
2018-01-23T03:19:02.080Z,61.45
2018-01-23T03:19:02.678Z,61.39
2018-01-23T03:20:00.232Z,62.34
2018-01-23T03:20:00.830Z,62.24
2018-01-23T03:20:01.426Z,62.43
2018-01-23T03:20:02.027Z,61.96
2018-01-23T03:20:02.625Z,62.24
2018-01-23T03:20:03.230Z,62.15
2018-01-23T03:20:03.826Z,62.05
2018-01-23T03:20:04.430Z,61.96
2018-01-23T03:20:57.884Z,63.86
2018-01-23T03:20:58.479Z,64.05
2018-01-23T03:20:59.078Z,64.05
2018-01-23T03:20:59.693Z,64.05
2018-01-23T03:21:00.276Z,64.05
2018-01-23T03:21:00.876Z,64.05
2018-01-23T03:21:01.476Z,63.86
2018-01-23T03:21:02.077Z,64.14
2018-01-23T03:21:55.534Z,63.95
2018-01-23T03:21:56.131Z,63.95
2018-01-23T03:21:56.730Z,64.14
2018-01-23T03:21:57.330Z,64.05
2018-01-23T03:21:57.929Z,63.95
2018-01-23T03:21:58.529Z,64.24
2018-01-23T03:21:59.133Z,64.43
2018-01-23T03:21:59.729Z,64.14
2018-01-23T03:22:54.208Z,64.90
2018-01-23T03:22:54.807Z,64.43
2018-01-23T03:22:55.407Z,64.34
2018-01-23T03:22:56.005Z,64.53
2018-01-23T03:22:56.604Z,64.34
2018-01-23T03:22:57.206Z,64.72
2018-01-23T03:22:57.804Z,64.53
2018-01-23T03:22:58.405Z,64.72
2018-01-23T03:23:51.862Z,64.81
2018-01-23T03:23:52.458Z,64.53
2018-01-23T03:23:53.058Z,64.53
2018-01-23T03:23:53.656Z,64.34
2018-01-23T03:23:54.258Z,64.53
2018-01-23T03:23:54.858Z,64.34
2018-01-23T03:23:55.457Z,64.43
2018-01-23T03:23:56.060Z,64.34
2018-01-23T03:24:50.571Z,65.00
2018-01-23T03:24:51.132Z,64.53
2018-01-23T03:24:51.732Z,64.53
2018-01-23T03:24:52.332Z,65.00
2018-01-23T03:24:52.932Z,64.62
2018-01-23T03:24:53.531Z,64.62
2018-01-23T03:24:54.133Z,64.81
2018-01-23T03:24:54.731Z,65.00
2018-01-23T03:25:48.190Z,64.72
2018-01-23T03:25:48.785Z,64.72
2018-01-23T03:25:49.385Z,64.90
2018-01-23T03:25:49.984Z,64.72
2018-01-23T03:25:50.584Z,64.72
2018-01-23T03:25:51.184Z,65.19
2018-01-23T03:25:51.784Z,65.09
2018-01-23T03:25:52.386Z,65.00
2018-01-23T03:26:46.863Z,65.67
2018-01-23T03:26:47.460Z,65.67
2018-01-23T03:26:48.060Z,65.47
2018-01-23T03:26:48.660Z,65.67
2018-01-23T03:26:49.259Z,65.67
2018-01-23T03:26:49.859Z,65.47
2018-01-23T03:26:50.459Z,65.67
2018-01-23T03:26:51.058Z,65.67
2018-01-23T03:27:44.619Z,66.61
2018-01-23T03:27:45.215Z,66.52
2018-01-23T03:27:45.815Z,66.61
2018-01-23T03:27:46.413Z,65.95
2018-01-23T03:27:47.015Z,66.61
2018-01-23T03:27:47.614Z,66.33
2018-01-23T03:27:48.219Z,66.14
2018-01-23T03:27:48.814Z,66.42
2018-01-23T03:28:42.271Z,66.80
2018-01-23T03:28:42.868Z,66.90
2018-01-23T03:28:43.476Z,66.90
2018-01-23T03:28:44.068Z,66.90
2018-01-23T03:28:44.666Z,66.90
2018-01-23T03:28:45.267Z,67.00
2018-01-23T03:28:45.867Z,66.80
2018-01-23T03:28:46.465Z,67.00
2018-01-23T03:29:39.922Z,67.76
2018-01-23T03:29:40.517Z,67.66
2018-01-23T03:29:41.117Z,67.85
2018-01-23T03:29:41.718Z,67.76
2018-01-23T03:29:42.317Z,67.76
2018-01-23T03:29:42.916Z,67.76
2018-01-23T03:29:43.516Z,67.76
2018-01-23T03:29:44.129Z,67.66
2018-01-23T03:30:38.632Z,67.66
2018-01-23T03:30:39.193Z,67.66
2018-01-23T03:30:39.794Z,67.76
2018-01-23T03:30:40.393Z,67.76
2018-01-23T03:30:40.993Z,67.85
2018-01-23T03:30:41.593Z,67.66
2018-01-23T03:30:42.197Z,67.94
2018-01-23T03:30:42.793Z,67.94
2018-01-23T03:31:37.274Z,68.23
2018-01-23T03:31:37.870Z,68.04
2018-01-23T03:31:38.469Z,67.85
2018-01-23T03:31:39.077Z,68.61
2018-01-23T03:31:39.669Z,68.04
2018-01-23T03:31:40.268Z,68.13
2018-01-23T03:31:40.869Z,68.13
2018-01-23T03:31:41.467Z,68.23
2018-01-23T03:32:35.948Z,68.90
2018-01-23T03:32:36.543Z,68.99
2018-01-23T03:32:37.144Z,68.90
2018-01-23T03:32:37.744Z,68.80
2018-01-23T03:32:38.343Z,68.99
2018-01-23T03:32:38.971Z,68.90
2018-01-23T03:32:39.544Z,68.99
2018-01-23T03:32:40.146Z,68.80
2018-01-23T03:33:33.601Z,69.66
2018-01-23T03:33:34.197Z,69.75
2018-01-23T03:33:34.797Z,69.85
2018-01-23T03:33:35.396Z,69.66
2018-01-23T03:33:35.995Z,69.66